Time;durP1;ratioP1;P1;durP2;ratioP2;P2;SDS_P1;SDS_P2;PMS_P1;PMS_P2;Temp;Humidity;BMP_temperature;BMP_pressure;BME280_temperature;BME280_humidity;BME280_pressure;Samples;Min_cycle;Max_cycle;Signal;HPM_P1;HPM_P2
2023/09/05 00:01:59;;;;;;;7.93;3.20;;;17.80;99.90;;;;;;5086916;28;20086;-70
2023/09/05 00:04:24;;;;;;;4.97;2.90;;;17.90;99.90;;;;;;5086955;28;20472;-70
2023/09/05 00:06:50;;;;;;;6.18;3.20;;;17.80;99.90;;;;;;5087040;28;20042;-71
2023/09/05 00:09:18;;;;;;;5.43;2.75;;;17.80;99.90;;;;;;5086923;28;20518;-71
2023/09/05 00:11:47;;;;;;;4.22;2.95;;;17.80;99.90;;;;;;5083517;28;20050;-70
2023/09/05 00:14:13;;;;;;;9.05;3.47;;;17.80;99.90;;;;;;5087737;28;20047;-71
2023/09/05 00:16:38;;;;;;;5.10;2.80;;;17.80;99.90;;;;;;5068711;28;20044;-71
2023/09/05 00:19:05;;;;;;;6.55;3.08;;;17.80;99.90;;;;;;5086136;28;20036;-69
2023/09/05 00:21:31;;;;;;;7.80;4.15;;;17.80;99.90;;;;;;5087219;28;20710;-69
2023/09/05 00:24:25;;;;;;;11.55;3.60;;;17.80;99.90;;;;;;5083720;28;20035;-70
2023/09/05 00:26:52;;;;;;;7.93;3.53;;;17.90;99.90;;;;;;5082140;28;20542;-70
2023/09/05 00:29:19;;;;;;;6.25;3.22;;;17.90;99.90;;;;;;5088269;28;20028;-69
2023/09/05 00:31:46;;;;;;;5.60;3.15;;;17.90;99.90;;;;;;5087941;28;20036;-70
2023/09/05 00:34:13;;;;;;;5.10;2.92;;;17.80;99.90;;;;;;5091362;28;20052;-69
2023/09/05 00:36:39;;;;;;;7.97;3.28;;;17.80;99.90;;;;;;5089230;28;20040;-70
2023/09/05 00:39:05;;;;;;;6.45;3.40;;;17.70;99.90;;;;;;5090309;28;20032;-71
2023/09/05 00:41:32;;;;;;;7.22;3.10;;;17.70;99.90;;;;;;5090272;28;20032;-70
2023/09/05 00:43:59;;;;;;;6.07;3.28;;;17.50;99.90;;;;;;5089447;28;20040;-71
2023/09/05 00:46:26;;;;;;;5.10;2.70;;;17.50;99.90;;;;;;5088390;28;20170;-69
2023/09/05 00:48:52;;;;;;;5.53;2.85;;;17.50;99.90;;;;;;5090507;28;20055;-70
2023/09/05 00:51:20;;;;;;;5.72;3.55;;;17.40;99.90;;;;;;5090241;28;20388;-70
2023/09/05 00:53:46;;;;;;;6.38;2.95;;;17.40;99.90;;;;;;5091048;28;20353;-70
2023/09/05 00:56:11;;;;;;;7.30;3.35;;;17.30;99.90;;;;;;5089194;28;20097;-70
2023/09/05 00:58:37;;;;;;;8.80;3.50;;;17.20;99.90;;;;;;5091251;28;20388;-70
2023/09/05 01:01:03;;;;;;;5.90;3.22;;;17.10;99.90;;;;;;5088744;28;20821;-70
2023/09/05 01:03:28;;;;;;;8.02;3.22;;;17.00;99.90;;;;;;5089856;28;20031;-70
2023/09/05 01:05:57;;;;;;;7.28;3.60;;;16.80;99.90;;;;;;5087879;28;20036;-70
2023/09/05 01:08:42;;;;;;;5.68;3.38;;;16.80;99.90;;;;;;5088284;28;20047;-69
2023/09/05 01:11:08;;;;;;;10.00;3.33;;;16.70;99.90;;;;;;5079167;28;20032;-70
2023/09/05 01:13:38;;;;;;;5.43;3.25;;;16.70;99.90;;;;;;5087507;28;20496;-70
2023/09/05 01:16:04;;;;;;;6.38;2.92;;;16.70;99.90;;;;;;5086989;28;20039;-71
2023/09/05 01:18:33;;;;;;;5.60;3.05;;;16.70;99.90;;;;;;5081992;28;20743;-71
2023/09/05 01:21:27;;;;;;;9.38;3.20;;;16.70;99.90;;;;;;5087561;28;20487;-70
2023/09/05 01:24:13;;;;;;;6.78;3.28;;;16.70;99.90;;;;;;5090479;28;20043;-70
2023/09/05 01:26:40;;;;;;;8.25;3.55;;;16.70;99.90;;;;;;5071856;28;20036;-71
2023/09/05 01:29:08;;;;;;;7.60;2.78;;;16.70;99.90;;;;;;5090654;28;20031;-70
2023/09/05 01:31:35;;;;;;;8.75;3.83;;;16.70;99.90;;;;;;5090203;28;20059;-71
2023/09/05 01:34:00;;;;;;;13.70;3.25;;;16.70;99.90;;;;;;5090461;28;20032;-69
2023/09/05 01:36:26;;;;;;;6.03;3.38;;;16.60;99.90;;;;;;5072106;28;20062;-70
2023/09/05 01:38:52;;;;;;;5.53;3.13;;;16.60;99.90;;;;;;5089586;28;20048;-71
2023/09/05 01:41:17;;;;;;;7.35;3.33;;;16.60;99.90;;;;;;5088427;28;20382;-69
2023/09/05 01:43:43;;;;;;;9.13;3.75;;;16.60;99.90;;;;;;5090181;28;20043;-71
2023/09/05 01:46:10;;;;;;;6.75;3.53;;;16.60;99.90;;;;;;5090331;28;20024;-71
2023/09/05 01:48:35;;;;;;;7.90;3.50;;;16.50;99.90;;;;;;5091046;28;20055;-71
2023/09/05 01:51:01;;;;;;;9.15;3.80;;;16.50;99.90;;;;;;5090111;28;20093;-71
2023/09/05 01:53:27;;;;;;;5.45;3.28;;;16.50;99.90;;;;;;5089107;28;20051;-71
2023/09/05 01:55:52;;;;;;;7.30;3.20;;;16.50;99.90;;;;;;5089820;28;20454;-71
2023/09/05 01:58:18;;;;;;;11.45;3.92;;;16.40;99.90;;;;;;5089189;28;20116;-71
2023/09/05 02:00:44;;;;;;;5.68;3.30;;;16.40;99.90;;;;;;5089559;28;20027;-71
2023/09/05 02:03:10;;;;;;;6.13;3.17;;;16.40;99.90;;;;;;5089689;28;20043;-71
2023/09/05 02:05:36;;;;;;;5.43;3.55;;;16.40;99.90;;;;;;5090889;28;20020;-71
2023/09/05 02:08:02;;;;;;;5.10;3.50;;;16.40;99.90;;;;;;5086487;28;20086;-71
2023/09/05 02:10:30;;;;;;;5.00;3.30;;;16.40;99.90;;;;;;5070203;28;20032;-71
2023/09/05 02:12:55;;;;;;;7.43;3.70;;;16.40;99.90;;;;;;5088192;28;20055;-71
2023/09/05 02:15:21;;;;;;;5.50;3.28;;;16.40;99.90;;;;;;5090537;28;20032;-71
2023/09/05 02:17:46;;;;;;;7.93;3.42;;;16.40;99.90;;;;;;5089602;28;20113;-71
2023/09/05 02:20:12;;;;;;;6.63;3.60;;;16.40;99.90;;;;;;5087591;28;20416;-70
2023/09/05 02:22:38;;;;;;;8.18;3.38;;;16.30;99.90;;;;;;5087896;28;20051;-70
2023/09/05 02:25:04;;;;;;;5.85;3.70;;;16.30;99.90;;;;;;5087630;28;20524;-70
2023/09/05 02:27:29;;;;;;;6.13;3.67;;;16.20;99.90;;;;;;5087778;28;20093;-70
2023/09/05 02:30:01;;;;;;;6.22;3.58;;;16.20;99.90;;;;;;5089367;28;20090;-70
2023/09/05 02:32:30;;;;;;;6.97;3.60;;;16.20;99.90;;;;;;5089127;28;20036;-69
2023/09/05 02:34:56;;;;;;;6.68;3.72;;;16.10;99.90;;;;;;5087182;28;20434;-70
2023/09/05 02:37:22;;;;;;;6.50;3.42;;;16.10;99.90;;;;;;5088464;28;20600;-70
2023/09/05 02:39:47;;;;;;;8.45;3.80;;;16.10;99.90;;;;;;5085638;28;20032;-70
2023/09/05 02:42:13;;;;;;;8.48;3.95;;;16.00;99.90;;;;;;5079357;28;20036;-69
2023/09/05 02:44:39;;;;;;;5.18;3.42;;;16.00;99.90;;;;;;5086852;28;20384;-69
2023/09/05 02:47:04;;;;;;;9.40;3.78;;;15.90;99.90;;;;;;5087898;28;20055;-70
2023/09/05 02:49:31;;;;;;;6.68;3.65;;;15.90;99.90;;;;;;5084515;28;20068;-68
2023/09/05 02:51:57;;;;;;;7.35;3.95;;;15.90;99.90;;;;;;5083986;28;20032;-69
2023/09/05 02:54:23;;;;;;;8.57;4.05;;;15.90;99.90;;;;;;5088630;28;20081;-70
2023/09/05 02:56:50;;;;;;;7.10;4.10;;;15.90;99.90;;;;;;5087135;28;20032;-70
2023/09/05 02:59:16;;;;;;;9.27;4.28;;;15.90;99.90;;;;;;5084086;28;20052;-70
2023/09/05 03:01:42;;;;;;;6.82;3.75;;;15.90;99.90;;;;;;5085259;28;20077;-70
2023/09/05 03:04:07;;;;;;;9.13;4.15;;;15.90;99.90;;;;;;5087263;28;20030;-70
2023/09/05 03:06:33;;;;;;;12.07;4.05;;;15.90;99.90;;;;;;5086025;28;20028;-69
2023/09/05 03:08:59;;;;;;;8.43;4.00;;;16.00;99.90;;;;;;5082628;28;20036;-71
2023/09/05 03:11:24;;;;;;;8.45;4.13;;;16.00;99.90;;;;;;5078842;28;20047;-70
2023/09/05 03:13:50;;;;;;;6.32;3.80;;;16.00;99.90;;;;;;5082324;28;20020;-70
2023/09/05 03:16:17;;;;;;;11.10;4.07;;;16.10;99.90;;;;;;5087413;28;20123;-69
2023/09/05 03:18:43;;;;;;;6.88;3.97;;;16.10;99.90;;;;;;5089302;28;20447;-70
2023/09/05 03:21:09;;;;;;;6.47;3.90;;;16.10;99.90;;;;;;5068171;28;20091;-70
2023/09/05 03:23:36;;;;;;;7.25;4.53;;;16.20;99.90;;;;;;5088831;28;20024;-70
2023/09/05 03:26:01;;;;;;;9.00;4.47;;;16.10;99.90;;;;;;5086432;28;20040;-71
2023/09/05 03:28:39;;;;;;;9.93;4.20;;;16.10;99.90;;;;;;5089178;28;20039;-70
2023/09/05 03:31:04;;;;;;;6.57;3.78;;;16.10;99.90;;;;;;5088247;28;20174;-70
2023/09/05 03:33:30;;;;;;;8.90;4.43;;;16.00;99.90;;;;;;5088258;28;20520;-70
2023/09/05 03:35:55;;;;;;;9.70;4.50;;;16.00;99.90;;;;;;5086626;28;20468;-70
2023/09/05 03:38:21;;;;;;;8.35;4.25;;;16.00;99.90;;;;;;5088087;28;20135;-70
2023/09/05 03:40:47;;;;;;;7.45;4.20;;;16.00;99.90;;;;;;5088108;28;20071;-71
2023/09/05 03:43:13;;;;;;;9.32;4.72;;;16.00;99.90;;;;;;5069039;28;20036;-70
2023/09/05 03:45:38;;;;;;;6.82;3.95;;;16.00;99.90;;;;;;5088945;28;20071;-71
2023/09/05 03:48:04;;;;;;;6.50;3.85;;;16.00;99.90;;;;;;5086171;28;20067;-71
2023/09/05 03:50:30;;;;;;;11.32;4.00;;;16.00;99.90;;;;;;5089393;28;20435;-70
2023/09/05 03:52:55;;;;;;;11.15;4.10;;;16.00;99.90;;;;;;5087185;28;20024;-71
2023/09/05 03:55:21;;;;;;;9.13;4.30;;;16.00;99.90;;;;;;5088861;28;20036;-70
2023/09/05 03:57:47;;;;;;;10.48;3.92;;;16.00;99.90;;;;;;5081237;28;20028;-71
2023/09/05 04:00:13;;;;;;;9.45;4.75;;;16.00;99.90;;;;;;5074742;28;20100;-71
2023/09/05 04:02:39;;;;;;;6.72;4.07;;;16.00;99.90;;;;;;5087066;28;20028;-71
2023/09/05 04:05:05;;;;;;;7.50;4.28;;;16.00;99.90;;;;;;5086541;28;20064;-68
2023/09/05 04:07:30;;;;;;;7.68;3.88;;;16.00;99.90;;;;;;5085608;28;20060;-68
2023/09/05 04:09:57;;;;;;;7.70;4.10;;;16.00;99.90;;;;;;5089950;28;20743;-71
2023/09/05 04:12:23;;;;;;;9.07;3.85;;;16.00;99.90;;;;;;5085399;28;20081;-70
2023/09/05 04:14:49;;;;;;;8.02;4.28;;;16.00;99.90;;;;;;5087711;28;20423;-71
2023/09/05 04:17:14;;;;;;;7.55;4.25;;;15.90;99.90;;;;;;5085731;28;20921;-69
2023/09/05 04:19:40;;;;;;;8.02;4.07;;;15.90;99.90;;;;;;5087930;28;20047;-69
2023/09/05 04:22:05;;;;;;;8.55;4.22;;;15.90;99.90;;;;;;5084733;28;20086;-69
2023/09/05 04:24:31;;;;;;;11.25;4.10;;;15.90;99.90;;;;;;5087602;28;20115;-69
2023/09/05 04:26:59;;;;;;;7.03;4.03;;;15.90;99.90;;;;;;5087671;28;20032;-70
2023/09/05 04:29:25;;;;;;;7.05;4.63;;;15.90;99.90;;;;;;5087970;28;20086;-72
2023/09/05 04:31:50;;;;;;;8.95;4.05;;;15.90;99.90;;;;;;5086376;28;20051;-72
2023/09/05 04:34:16;;;;;;;9.60;4.22;;;15.80;99.90;;;;;;5084681;28;20036;-69
2023/09/05 04:36:42;;;;;;;6.45;4.03;;;15.80;99.90;;;;;;5087529;28;20042;-69
2023/09/05 04:39:08;;;;;;;11.23;4.70;;;15.70;99.90;;;;;;5086658;28;20040;-71
2023/09/05 04:41:33;;;;;;;9.82;4.28;;;15.70;99.90;;;;;;5088235;28;20107;-70
2023/09/05 04:43:59;;;;;;;8.70;3.92;;;15.70;99.90;;;;;;5087734;28;20131;-70
2023/09/05 04:46:26;;;;;;;6.32;3.97;;;15.70;99.90;;;;;;5087214;28;20032;-69
2023/09/05 04:48:53;;;;;;;6.97;4.05;;;15.70;99.90;;;;;;5079582;28;20064;-71
2023/09/05 04:51:19;;;;;;;6.63;4.00;;;15.70;99.90;;;;;;5082188;28;20495;-70
2023/09/05 04:53:44;;;;;;;7.70;4.07;;;15.70;99.90;;;;;;5088125;28;20033;-73
2023/09/05 04:56:10;;;;;;;12.25;4.50;;;15.70;99.90;;;;;;5086489;28;20036;-72
2023/09/05 04:58:35;;;;;;;8.07;4.05;;;15.70;99.90;;;;;;5089251;28;20032;-71
2023/09/05 05:01:02;;;;;;;7.22;3.88;;;15.70;99.90;;;;;;5084097;28;20020;-72
2023/09/05 05:03:29;;;;;;;10.48;4.28;;;15.70;99.90;;;;;;5088091;28;20024;-71
2023/09/05 05:05:55;;;;;;;6.85;3.83;;;15.80;99.90;;;;;;5084781;28;20042;-73
2023/09/05 05:08:21;;;;;;;7.50;3.97;;;15.70;99.90;;;;;;5086485;28;20102;-71
2023/09/05 05:10:46;;;;;;;7.40;4.28;;;15.70;99.90;;;;;;5085524;28;20031;-70
2023/09/05 05:13:12;;;;;;;9.13;3.78;;;15.80;99.90;;;;;;5083067;28;20089;-70
2023/09/05 05:15:38;;;;;;;6.97;4.20;;;15.80;99.90;;;;;;5084078;28;20550;-70
2023/09/05 05:18:04;;;;;;;8.07;3.90;;;15.80;99.90;;;;;;5089649;28;20043;-70
2023/09/05 05:20:29;;;;;;;8.23;4.30;;;15.80;99.90;;;;;;5090312;28;20028;-70
2023/09/05 05:22:55;;;;;;;8.75;4.47;;;15.90;99.90;;;;;;5087069;28;20529;-69
2023/09/05 05:25:21;;;;;;;7.55;4.35;;;15.90;99.90;;;;;;5087329;28;20682;-70
2023/09/05 05:27:47;;;;;;;9.05;4.30;;;16.00;99.90;;;;;;5088501;28;20085;-69
2023/09/05 05:30:13;;;;;;;7.95;4.25;;;16.00;99.90;;;;;;5087363;28;20184;-70
2023/09/05 05:32:38;;;;;;;8.18;4.22;;;16.00;99.90;;;;;;5092606;28;20032;-69
2023/09/05 05:35:05;;;;;;;10.00;4.68;;;16.00;99.90;;;;;;5093275;28;20551;-70
2023/09/05 05:37:30;;;;;;;6.40;3.78;;;16.10;99.90;;;;;;5088969;28;20044;-69
2023/09/05 05:39:57;;;;;;;8.57;4.45;;;16.20;99.90;;;;;;5088702;28;20039;-69
2023/09/05 05:42:23;;;;;;;8.80;4.15;;;16.20;99.90;;;;;;5086151;28;20082;-69
2023/09/05 05:44:48;;;;;;;6.88;4.07;;;16.30;99.90;;;;;;5071598;28;20424;-69
2023/09/05 05:47:14;;;;;;;8.43;4.10;;;16.30;99.90;;;;;;5086942;28;20442;-69
2023/09/05 05:49:40;;;;;;;7.10;4.10;;;16.40;99.90;;;;;;5089528;28;20032;-70
2023/09/05 05:52:05;;;;;;;8.40;4.30;;;16.40;99.90;;;;;;5086767;28;20073;-69
2023/09/05 05:54:31;;;;;;;11.82;4.43;;;16.50;99.90;;;;;;5088820;28;20027;-70
2023/09/05 05:56:57;;;;;;;9.93;4.22;;;16.50;99.90;;;;;;5087720;28;20035;-70
2023/09/05 05:59:26;;;;;;;8.52;4.40;;;16.60;99.90;;;;;;5090631;28;20071;-71
2023/09/05 06:01:52;;;;;;;11.18;4.20;;;16.70;99.90;;;;;;5088540;28;20040;-70
2023/09/05 06:04:21;;;;;;;8.32;4.30;;;16.80;99.90;;;;;;5089119;28;20031;-70
2023/09/05 06:06:50;;;;;;;7.75;3.95;;;16.90;99.90;;;;;;5091453;28;20036;-71
2023/09/05 06:09:18;;;;;;;7.78;3.78;;;16.90;99.90;;;;;;5089843;28;20031;-70
2023/09/05 06:11:44;;;;;;;7.63;3.78;;;17.10;99.90;;;;;;5089443;28;20399;-71
2023/09/05 06:14:10;;;;;;;9.60;3.90;;;17.20;99.90;;;;;;5084230;28;20036;-71
2023/09/05 06:16:36;;;;;;;9.23;3.60;;;17.20;99.90;;;;;;5088594;28;20040;-70
2023/09/05 06:19:01;;;;;;;8.23;4.13;;;17.30;99.90;;;;;;5089185;28;20040;-71
2023/09/05 06:21:27;;;;;;;9.60;3.97;;;17.40;99.90;;;;;;5088787;28;20032;-69
2023/09/05 06:23:53;;;;;;;6.40;3.80;;;17.50;99.90;;;;;;5090849;28;20020;-70
2023/09/05 06:26:18;;;;;;;10.23;4.05;;;17.60;99.90;;;;;;5087643;28;20476;-71
2023/09/05 06:28:44;;;;;;;9.43;3.63;;;17.60;99.90;;;;;;5089669;28;20032;-71
2023/09/05 06:31:09;;;;;;;8.00;4.10;;;17.70;99.90;;;;;;5088769;28;20024;-71
2023/09/05 06:33:35;;;;;;;7.25;3.85;;;17.70;99.90;;;;;;5088630;28;20411;-71
2023/09/05 06:36:08;;;;;;;7.28;3.42;;;17.90;99.90;;;;;;5088750;28;20024;-69
2023/09/05 06:38:33;;;;;;;6.82;3.40;;;17.90;99.90;;;;;;5090162;28;20045;-71
2023/09/05 06:41:10;;;;;;;12.82;3.85;;;18.00;99.90;;;;;;5090251;28;20031;-70
2023/09/05 06:43:37;;;;;;;14.88;4.40;;;18.00;99.90;;;;;;5088908;28;20028;-71
2023/09/05 06:46:07;;;;;;;10.27;3.83;;;18.10;99.90;;;;;;5086254;28;20028;-71
2023/09/05 06:48:38;;;;;;;5.90;3.45;;;18.20;99.90;;;;;;5087502;28;20074;-69
2023/09/05 06:51:04;;;;;;;5.78;3.33;;;18.30;99.90;;;;;;5087514;28;20028;-70
2023/09/05 06:53:30;;;;;;;11.10;3.55;;;18.40;99.90;;;;;;5083346;28;20093;-73
2023/09/05 06:55:56;;;;;;;6.32;3.72;;;18.50;99.90;;;;;;5095460;28;20031;-74
2023/09/05 06:58:24;;;;;;;6.97;3.35;;;18.60;99.90;;;;;;5097152;28;20070;-70
2023/09/05 07:00:53;;;;;;;5.60;3.40;;;18.70;99.90;;;;;;5086107;28;20032;-70
2023/09/05 07:03:25;;;;;;;6.97;3.58;;;18.70;99.90;;;;;;5093572;28;20032;-70
2023/09/05 07:05:56;;;;;;;6.53;2.80;;;18.80;99.90;;;;;;5084305;28;20680;-70
2023/09/05 07:08:22;;;;;;;7.25;3.00;;;19.00;99.90;;;;;;5085903;28;20103;-70
2023/09/05 07:10:48;;;;;;;10.40;3.67;;;19.00;99.90;;;;;;5100070;28;20043;-70
2023/09/05 07:13:15;;;;;;;6.13;3.42;;;19.10;99.90;;;;;;5085012;28;20039;-70
2023/09/05 07:15:43;;;;;;;7.88;3.28;;;19.10;99.90;;;;;;5084739;28;20024;-69
2023/09/05 07:18:09;;;;;;;4.80;3.00;;;19.20;99.90;;;;;;5082891;28;20640;-68
2023/09/05 07:20:34;;;;;;;6.38;3.00;;;19.30;99.90;;;;;;5083627;28;20111;-71
2023/09/05 07:23:00;;;;;;;6.53;3.25;;;19.40;99.90;;;;;;5066791;28;20028;-70
2023/09/05 07:25:26;;;;;;;8.48;3.20;;;19.50;99.90;;;;;;5087139;28;20134;-70
2023/09/05 07:27:51;;;;;;;5.65;3.03;;;19.60;99.90;;;;;;5086074;28;20113;-69
2023/09/05 07:30:17;;;;;;;5.63;3.10;;;19.60;99.90;;;;;;5094902;28;20039;-69
2023/09/05 07:32:43;;;;;;;8.13;3.13;;;19.70;99.90;;;;;;5093346;28;20127;-69
2023/09/05 07:35:09;;;;;;;4.05;2.65;;;19.70;99.90;;;;;;5097840;28;20071;-70
2023/09/05 07:37:36;;;;;;;7.43;3.13;;;19.80;99.90;;;;;;5080367;28;20060;-70
2023/09/05 07:40:05;;;;;;;5.32;3.33;;;19.80;99.90;;;;;;5087014;28;20115;-69
2023/09/05 07:42:30;;;;;;;6.75;2.78;;;19.90;99.90;;;;;;5069239;28;20028;-69
2023/09/05 07:44:56;;;;;;;6.35;3.35;;;20.00;99.90;;;;;;5101613;28;20046;-69
2023/09/05 07:47:21;;;;;;;6.82;3.78;;;20.10;99.90;;;;;;5089225;28;20058;-70
2023/09/05 07:49:47;;;;;;;4.47;2.80;;;20.10;99.90;;;;;;5082626;28;20040;-71
2023/09/05 07:52:13;;;;;;;6.18;2.80;;;20.10;99.90;;;;;;5083904;28;20028;-70
2023/09/05 07:54:39;;;;;;;4.55;2.85;;;20.20;99.90;;;;;;5087214;28;20711;-71
2023/09/05 07:57:05;;;;;;;5.72;2.83;;;20.30;99.90;;;;;;5085366;28;20142;-70
2023/09/05 07:59:31;;;;;;;4.93;2.80;;;20.40;99.90;;;;;;5087277;28;20119;-70
2023/09/05 08:01:57;;;;;;;7.68;3.10;;;20.40;99.90;;;;;;5083413;28;20047;-69
2023/09/05 08:04:23;;;;;;;5.07;2.80;;;20.40;99.90;;;;;;5087233;28;20039;-69
2023/09/05 08:06:49;;;;;;;4.88;2.90;;;20.50;99.90;;;;;;5085686;28;20020;-69
2023/09/05 08:09:15;;;;;;;4.60;2.85;;;20.50;99.90;;;;;;5086248;28;20031;-70
2023/09/05 08:11:40;;;;;;;8.85;2.83;;;20.50;99.90;;;;;;5087959;28;20464;-69
2023/09/05 08:14:06;;;;;;;10.00;3.40;;;20.70;99.90;;;;;;5084671;28;20032;-69
2023/09/05 08:16:33;;;;;;;5.28;2.95;;;20.80;99.90;;;;;;5086552;28;20689;-71
2023/09/05 08:18:58;;;;;;;6.95;3.00;;;20.80;99.90;;;;;;5083804;28;20107;-70
2023/09/05 08:21:26;;;;;;;4.97;3.40;;;20.80;99.90;;;;;;5085827;28;20034;-69
2023/09/05 08:23:52;;;;;;;4.38;2.75;;;20.90;99.90;;;;;;5087185;28;20032;-70
2023/09/05 08:26:18;;;;;;;7.65;2.72;;;21.00;99.90;;;;;;5083460;28;20063;-72
2023/09/05 08:28:45;;;;;;;4.68;2.90;;;21.10;99.90;;;;;;5086690;28;20461;-71
2023/09/05 08:31:11;;;;;;;5.03;2.90;;;21.00;99.90;;;;;;5082844;28;20020;-69
2023/09/05 08:33:37;;;;;;;5.07;3.00;;;21.20;99.90;;;;;;5086101;28;20035;-71
2023/09/05 08:36:08;;;;;;;6.25;3.22;;;21.20;99.90;;;;;;5087940;28;20032;-69
2023/09/05 08:38:35;;;;;;;6.65;2.60;;;21.40;99.90;;;;;;5087823;28;20036;-71
2023/09/05 08:41:01;;;;;;;6.25;2.90;;;21.40;99.90;;;;;;5085806;28;20036;-70
2023/09/05 08:43:28;;;;;;;5.30;2.97;;;21.40;99.90;;;;;;5083725;28;20503;-69
2023/09/05 08:45:55;;;;;;;5.70;3.25;;;21.60;99.90;;;;;;5086592;28;20031;-68
2023/09/05 08:48:21;;;;;;;5.38;2.67;;;21.70;99.90;;;;;;5084703;28;20052;-72
2023/09/05 08:50:48;;;;;;;4.07;2.58;;;21.80;99.90;;;;;;5085442;28;20437;-71
2023/09/05 08:53:15;;;;;;;4.13;2.60;;;21.90;99.90;;;;;;5088889;28;20035;-72
2023/09/05 08:55:45;;;;;;;6.90;3.00;;;21.90;99.90;;;;;;5088286;28;20028;-71
2023/09/05 08:58:15;;;;;;;6.70;2.55;;;21.90;99.90;;;;;;5089939;28;20049;-71
2023/09/05 09:00:43;;;;;;;4.25;2.75;;;21.90;99.90;;;;;;5091165;28;20495;-71
2023/09/05 09:03:08;;;;;;;5.43;3.03;;;22.00;99.90;;;;;;5091723;28;20034;-71
2023/09/05 09:05:36;;;;;;;5.75;3.53;;;22.10;99.90;;;;;;5090656;28;20024;-72
2023/09/05 09:08:03;;;;;;;13.43;2.70;;;22.30;99.90;;;;;;5089938;28;20111;-71
2023/09/05 09:10:28;;;;;;;3.58;2.50;;;22.40;99.90;;;;;;5087931;28;20252;-71
2023/09/05 09:13:12;;;;;;;4.38;2.60;;;22.50;99.90;;;;;;5090904;28;20043;-71
2023/09/05 09:15:41;;;;;;;6.53;2.92;;;22.50;99.90;;;;;;5091821;28;20024;-70
2023/09/05 09:18:12;;;;;;;5.38;2.75;;;22.50;99.90;;;;;;5091540;28;20040;-70
2023/09/05 09:20:45;;;;;;;3.63;2.60;;;22.40;99.90;;;;;;5089372;28;20484;-70
2023/09/05 09:23:11;;;;;;;3.67;2.50;;;22.40;99.90;;;;;;5083277;28;20041;-70
2023/09/05 09:25:47;;;;;;;15.75;2.90;;;22.50;99.90;;;;;;5089730;28;20039;-68
2023/09/05 09:28:26;;;;;;;7.15;3.00;;;22.50;99.90;;;;;;5085877;28;20102;-70
2023/09/05 09:31:12;;;;;;;5.47;2.83;;;22.50;99.90;;;;;;5093744;28;20565;-71
2023/09/05 09:33:38;;;;;;;6.45;2.80;;;22.60;99.90;;;;;;5091335;28;20032;-70
2023/09/05 09:36:09;;;;;;;3.67;2.50;;;22.70;99.90;;;;;;5090615;28;20439;-69
2023/09/05 09:38:36;;;;;;;4.45;2.88;;;22.80;99.90;;;;;;5090524;28;20032;-68
2023/09/05 09:41:03;;;;;;;6.53;3.05;;;22.80;99.90;;;;;;5091733;28;20020;-69
2023/09/05 09:43:30;;;;;;;4.65;2.90;;;22.90;99.90;;;;;;5070519;28;20606;-71
2023/09/05 09:46:00;;;;;;;5.15;2.92;;;23.20;99.90;;;;;;5085317;28;20151;-69
2023/09/05 09:48:28;;;;;;;5.25;2.75;;;23.40;99.90;;;;;;5099750;28;20082;-72
2023/09/05 09:50:58;;;;;;;4.43;2.55;;;23.50;99.90;;;;;;5111607;28;20558;-69
2023/09/05 09:53:50;;;;;;;4.15;2.50;;;23.30;99.90;;;;;;5092243;28;20034;-71
2023/09/05 09:56:19;;;;;;;5.10;2.53;;;23.40;99.90;;;;;;5062057;28;20380;-70
2023/09/05 09:58:48;;;;;;;4.15;2.30;;;23.50;99.90;;;;;;5089474;28;20032;-69
2023/09/05 10:01:14;;;;;;;6.43;2.40;;;23.80;99.90;;;;;;5086575;28;20052;-70
2023/09/05 10:03:44;;;;;;;7.90;2.45;;;24.00;99.90;;;;;;5087348;28;20082;-70
2023/09/05 10:06:10;;;;;;;5.28;2.72;;;24.10;99.90;;;;;;5087607;28;20043;-70
2023/09/05 10:08:36;;;;;;;6.72;2.90;;;24.20;99.90;;;;;;5088882;28;20031;-70
2023/09/05 10:11:02;;;;;;;5.85;2.88;;;24.20;99.90;;;;;;5087221;28;20063;-69
2023/09/05 10:13:32;;;;;;;5.15;2.63;;;24.30;99.90;;;;;;5087759;28;20059;-70
2023/09/05 10:16:01;;;;;;;6.15;2.55;;;24.50;99.90;;;;;;5086051;28;20570;-69
2023/09/05 10:18:31;;;;;;;3.58;2.58;;;24.50;99.80;;;;;;5088103;28;20094;-69
2023/09/05 10:21:00;;;;;;;;;;;24.30;99.90;;;;;;5087621;28;20522;-70
2023/09/05 10:23:31;;;;;;;5.25;2.72;;;24.10;99.20;;;;;;5084602;28;19943;-67
2023/09/05 10:25:59;;;;;;;5.45;2.40;;;23.90;99.70;;;;;;5088710;28;20034;-69
2023/09/05 10:28:28;;;;;;;3.90;2.33;;;24.10;99.90;;;;;;5067651;28;20408;-70
2023/09/05 10:30:54;;;;;;;4.38;2.85;;;24.20;98.90;;;;;;5077769;28;20036;-71
2023/09/05 10:33:38;;;;;;;6.30;2.47;;;24.40;99.80;;;;;;5086618;28;20038;-70
2023/09/05 10:36:06;;;;;;;5.13;2.80;;;24.50;99.10;;;;;;5079749;28;20415;-70
2023/09/05 10:38:36;;;;;;;3.63;2.20;;;24.50;98.90;;;;;;5089261;28;21005;-72
2023/09/05 10:41:02;;;;;;;7.10;2.30;;;24.60;98.70;;;;;;5090147;28;20735;-71
2023/09/05 10:43:28;;;;;;;3.97;2.42;;;24.90;98.50;;;;;;5085603;28;20032;-70
2023/09/05 10:46:01;;;;;;;4.35;2.30;;;24.90;98.90;;;;;;5089381;28;20044;-70
2023/09/05 10:48:38;;;;;;;3.30;2.17;;;24.90;99.00;;;;;;5086630;28;20103;-71
2023/09/05 10:51:05;;;;;;;3.80;2.50;;;25.20;98.80;;;;;;5088852;28;20476;-70
2023/09/05 10:53:31;;;;;;;8.63;1.95;;;25.50;97.50;;;;;;5088738;28;20103;-70
2023/09/05 10:55:57;;;;;;;3.83;2.13;;;25.40;97.00;;;;;;5088741;28;20722;-69
2023/09/05 10:58:51;;;;;;;2.67;1.88;;;25.50;96.50;;;;;;5086773;28;20036;-71
2023/09/05 11:01:31;;;;;;;2.95;1.95;;;25.30;97.00;;;;;;5087221;28;20353;-70
2023/09/05 11:04:13;;;;;;;3.17;2.05;;;25.50;97.10;;;;;;5069750;28;20393;-70
2023/09/05 11:06:39;;;;;;;4.22;2.50;;;25.70;97.50;;;;;;5085187;28;20043;-70
2023/09/05 11:09:06;;;;;;;2.85;1.92;;;25.80;96.40;;;;;;5088379;28;20551;-70
2023/09/05 11:11:37;;;;;;;3.33;2.33;;;25.80;97.30;;;;;;5087682;28;20035;-71
2023/09/05 11:14:06;;;;;;;3.42;2.15;;;26.10;96.50;;;;;;5089192;28;20043;-71
2023/09/05 11:16:49;;;;;;;3.88;2.22;;;26.30;96.80;;;;;;5086219;28;20123;-70
2023/09/05 11:19:49;;;;;;;2.70;2.03;;;26.50;97.20;;;;;;5087232;28;20040;-70
2023/09/05 11:22:17;;;;;;;3.47;2.33;;;26.60;95.90;;;;;;5089258;28;20028;-70
2023/09/05 11:24:51;;;;;;;5.03;2.30;;;26.40;96.00;;;;;;5088122;28;20075;-71
2023/09/05 11:27:25;;;;;;;3.08;2.10;;;26.40;96.10;;;;;;5088924;28;20054;-70
2023/09/05 11:29:55;;;;;;;2.85;2.00;;;26.30;94.40;;;;;;5086565;28;20020;-68
2023/09/05 11:32:29;;;;;;;4.60;2.08;;;26.20;94.60;;;;;;5085375;28;20191;-73
2023/09/05 11:34:55;;;;;;;3.70;2.10;;;26.30;95.30;;;;;;5087935;28;20439;-69
2023/09/05 11:37:21;;;;;;;5.57;2.10;;;26.30;94.60;;;;;;5088201;28;20028;-69
2023/09/05 11:39:51;;;;;;;8.20;2.20;;;26.30;94.80;;;;;;5089013;28;20105;-69
2023/09/05 11:42:18;;;;;;;2.97;2.20;;;26.40;94.50;;;;;;5088754;28;20075;-69
2023/09/05 11:44:44;;;;;;;5.13;2.13;;;26.30;93.00;;;;;;5084617;28;20042;-70
2023/09/05 11:47:11;;;;;;;2.75;1.90;;;26.30;93.40;;;;;;5083173;28;20052;-70
2023/09/05 11:49:37;;;;;;;2.55;1.88;;;26.30;94.40;;;;;;5067715;28;20020;-70
2023/09/05 11:52:03;;;;;;;3.60;1.92;;;26.60;92.70;;;;;;5067335;28;20389;-70
2023/09/05 11:54:31;;;;;;;2.83;1.90;;;26.60;93.10;;;;;;5066743;28;20124;-70
2023/09/05 11:56:57;;;;;;;1.92;1.52;;;26.70;92.90;;;;;;5068635;28;20107;-70
2023/09/05 11:59:26;;;;;;;3.47;1.92;;;27.00;93.80;;;;;;5065677;28;20119;-71
2023/09/05 12:01:52;;;;;;;5.13;1.73;;;27.10;92.00;;;;;;5065389;28;20048;-69
2023/09/05 12:04:18;;;;;;;3.90;1.77;;;27.30;92.70;;;;;;5065803;28;20047;-70
2023/09/05 12:06:49;;;;;;;3.92;1.90;;;27.30;91.20;;;;;;5067287;28;20032;-70
2023/09/05 12:09:14;;;;;;;6.10;2.10;;;27.30;92.10;;;;;;5067472;28;20036;-70
2023/09/05 12:11:40;;;;;;;5.55;2.40;;;27.60;92.20;;;;;;5067801;28;20106;-70
2023/09/05 12:14:06;;;;;;;5.13;2.70;;;27.60;93.00;;;;;;5067189;28;20025;-72
2023/09/05 12:16:32;;;;;;;6.15;2.60;;;27.40;94.10;;;;;;5060847;28;20084;-71
2023/09/05 12:18:58;;;;;;;3.38;2.42;;;27.40;94.70;;;;;;5061605;28;20095;-71
2023/09/05 12:21:26;;;;;;;4.38;2.50;;;27.50;94.50;;;;;;5045845;28;20039;-72
2023/09/05 12:23:52;;;;;;;4.88;2.70;;;28.00;96.80;;;;;;5067135;28;20028;-70
2023/09/05 12:26:18;;;;;;;4.15;2.63;;;28.20;93.60;;;;;;5064805;28;20035;-70
2023/09/05 12:28:58;;;;;;;5.65;2.42;;;27.80;94.10;;;;;;5070719;28;20024;-71
2023/09/05 12:31:23;;;;;;;6.18;2.80;;;27.80;96.20;;;;;;5068227;28;20052;-70
2023/09/05 12:33:49;;;;;;;6.00;2.58;;;27.80;95.00;;;;;;5071122;28;20071;-71
2023/09/05 12:36:14;;;;;;;4.25;2.20;;;28.00;94.10;;;;;;5067722;28;20069;-71
2023/09/05 12:38:40;;;;;;;3.85;2.35;;;28.00;94.00;;;;;;5062652;28;20020;-70
2023/09/05 12:41:06;;;;;;;4.15;2.50;;;28.00;93.00;;;;;;5070299;28;20016;-70
2023/09/05 12:43:32;;;;;;;3.70;2.50;;;27.80;93.60;;;;;;5069036;28;20067;-70
2023/09/05 12:45:58;;;;;;;5.22;2.50;;;28.00;94.00;;;;;;5070790;28;20025;-71
2023/09/05 12:48:24;;;;;;;6.85;2.35;;;28.00;93.30;;;;;;5085606;28;20052;-71